Time;durP1;ratioP1;P1;durP2;ratioP2;P2;SDS_P1;SDS_P2;PMS_P1;PMS_P2;Temp;Humidity;BMP_temperature;BMP_pressure;BME280_temperature;BME280_humidity;BME280_pressure;Samples;Min_cycle;Max_cycle;Signal;HPM_P1;HPM_P2
2022/01/02 10:41:10;;;;;;;23.70;14.23;;;;;;;;;;6285098;28;20775;-74
2022/01/02 10:44:29;;;;;;;46.40;23.92;;;;;;;;;;6250854;28;20060;-74
2022/01/02 10:47:29;;;;;;;30.88;17.65;;;;;;;;;;6242038;28;20017;-74
2022/01/02 10:50:30;;;;;;;26.83;13.90;;;;;;;;;;6254980;28;20032;-74
2022/01/02 10:53:31;;;;;;;31.77;12.73;;;;;;;;;;6262744;28;20508;-75
2022/01/02 10:56:31;;;;;;;19.60;9.57;;;;;;;;;;6288385;28;20060;-75
2022/01/02 10:59:31;;;;;;;18.02;9.75;;;;;;;;;;6262258;28;20367;-75
2022/01/02 11:02:32;;;;;;;25.92;12.27;;;;;;;;;;6262512;28;20018;-75
2022/01/02 11:05:33;;;;;;;27.08;13.50;;;;;;;;;;6265874;28;20025;-75
2022/01/02 11:08:35;;;;;;;18.58;8.63;;;;;;;;;;6256239;28;20033;-75
2022/01/02 11:11:35;;;;;;;17.55;7.30;;;;;;;;;;6256784;28;20031;-75
2022/01/02 11:14:35;;;;;;;11.03;7.27;;;;;;;;;;6261878;28;20409;-75
2022/01/02 11:17:36;;;;;;;22.33;10.95;;;;;;;;;;6257274;28;20109;-75
2022/01/02 11:20:37;;;;;;;37.42;16.83;;;;;;;;;;6238914;28;20029;-75
2022/01/02 11:23:55;;;;;;;17.42;11.20;;;;;;;;;;6239794;28;20017;-75
2022/01/02 11:27:15;;;;;;;44.17;23.77;;;;;;;;;;6269981;28;20120;-75
2022/01/02 11:30:31;;;;;;;36.30;16.67;;;;;;;;;;6240288;28;20014;-75
2022/01/02 11:33:33;;;;;;;47.17;20.05;;;;;;;;;;6263692;28;20040;-76
2022/01/02 11:36:34;;;;;;;37.08;19.63;;;;;;;;;;6258912;28;20355;-76
2022/01/02 11:39:53;;;;;;;22.37;12.80;;;;;;;;;;6236566;28;20046;-75
2022/01/02 11:42:53;;;;;;;20.92;10.75;;;;;;;;;;6235194;28;20018;-75
2022/01/02 11:45:54;;;;;;;21.45;12.20;;;;;;;;;;6268468;28;20092;-76
2022/01/02 11:49:15;;;;;;;23.00;11.80;;;;;;;;;;6234835;28;20017;-75
2022/01/02 11:52:22;;;;;;;15.60;8.02;;;;;;;;;;6222394;28;20029;-76
2022/01/02 11:55:23;;;;;;;22.10;7.82;;;;;;;;;;6219657;28;20045;-76
2022/01/02 11:58:46;;;;;;;21.77;9.98;;;;;;;;;;6217877;28;20028;-76
2022/01/02 12:01:48;;;;;;;23.70;10.20;;;;;;;;;;6237306;28;20087;-76
2022/01/02 12:08:01;;;;;;;19.85;10.05;;;;;;;;;;6242399;28;20060;-75
2022/01/02 12:11:21;;;;;;;30.27;13.23;;;;;;;;;;6240241;28;20100;-75
2022/01/02 12:14:22;;;;;;;22.27;9.85;;;;;;;;;;6244568;28;20443;-75
2022/01/02 12:17:25;;;;;;;19.42;8.10;;;;;;;;;;6243689;28;20029;-75
2022/01/02 12:20:25;;;;;;;19.80;9.60;;;;;;;;;;6242530;28;20033;-75
2022/01/02 12:23:31;;;;;;;24.08;10.57;;;;;;;;;;6244717;28;20433;-75
2022/01/02 12:26:33;;;;;;;14.80;6.43;;;;;;;;;;6244228;28;20018;-75
2022/01/02 12:29:33;;;;;;;19.85;8.32;;;;;;;;;;6243328;28;20424;-75
2022/01/02 12:32:33;;;;;;;11.55;5.82;;;;;;;;;;6252816;28;20029;-75
2022/01/02 12:35:37;;;;;;;13.83;6.63;;;;;;;;;;6260212;28;20035;-75
2022/01/02 12:39:04;;;;;;;13.95;5.65;;;;;;;;;;6264719;28;20418;-75
2022/01/02 12:42:06;;;;;;;8.57;4.47;;;;;;;;;;6240750;28;20029;-75
2022/01/02 12:45:06;;;;;;;10.02;5.72;;;;;;;;;;6242560;28;20047;-75
2022/01/02 12:48:06;;;;;;;9.50;5.43;;;;;;;;;;6234581;28;20021;-75
2022/01/02 12:51:10;;;;;;;6.15;3.38;;;;;;;;;;6223308;28;20029;-75
2022/01/02 12:54:12;;;;;;;13.07;5.93;;;;;;;;;;6239952;28;20484;-75
2022/01/02 12:57:13;;;;;;;14.10;8.15;;;;;;;;;;6243584;28;20022;-75
2022/01/02 13:00:14;;;;;;;13.88;6.20;;;;;;;;;;6244606;28;20112;-75
2022/01/02 13:03:16;;;;;;;12.17;6.73;;;;;;;;;;6243001;28;20010;-75
2022/01/02 13:06:16;;;;;;;;;;;;;;;;;;6265139;28;20027;-74
2022/01/02 13:09:23;;;;;;;9.07;5.47;;;;;;;;;;6269490;28;19912;-74
2022/01/02 13:12:24;;;;;;;21.30;6.72;;;;;;;;;;6269318;28;20029;-74
2022/01/02 13:15:25;;;;;;;11.52;5.60;;;;;;;;;;6269349;28;20025;-75
2022/01/02 13:18:25;;;;;;;18.08;7.80;;;;;;;;;;6269019;28;20615;-75
2022/01/02 13:21:25;;;;;;;10.85;5.75;;;;;;;;;;6242572;28;20021;-75
2022/01/02 13:24:27;;;;;;;16.70;7.25;;;;;;;;;;6236835;28;20393;-75
2022/01/02 13:27:27;;;;;;;12.73;6.32;;;;;;;;;;6224840;28;20030;-75
2022/01/02 13:30:29;;;;;;;10.57;5.33;;;;;;;;;;6218079;28;20116;-75
2022/01/02 13:33:31;;;;;;;9.05;5.10;;;;;;;;;;6221314;28;20076;-74
2022/01/02 13:36:31;;;;;;;12.55;5.93;;;;;;;;;;6225266;28;20017;-75
2022/01/02 13:39:37;;;;;;;16.65;6.57;;;;;;;;;;6237404;28;20045;-74
2022/01/02 13:42:39;;;;;;;11.35;4.97;;;;;;;;;;6228394;28;20026;-75
2022/01/02 13:45:42;;;;;;;;;;;;;;;;;;6221809;28;20451;-75
2022/01/02 13:48:42;;;;;;;12.25;6.63;;;;;;;;;;6223326;28;19920;-74
2022/01/02 13:51:43;;;;;;;17.25;7.32;;;;;;;;;;6228895;28;20030;-74
2022/01/02 13:54:44;;;;;;;10.93;5.50;;;;;;;;;;6243093;28;20036;-74
2022/01/02 13:57:44;;;;;;;11.33;6.10;;;;;;;;;;6242269;28;20028;-74
2022/01/02 14:01:04;;;;;;;12.52;6.10;;;;;;;;;;6243721;28;20022;-74
2022/01/02 14:04:09;;;;;;;16.08;6.20;;;;;;;;;;6232363;28;20398;-75
2022/01/02 14:07:09;;;;;;;13.27;5.50;;;;;;;;;;6226113;28;20811;-75
2022/01/02 14:10:09;;;;;;;14.37;7.10;;;;;;;;;;6229058;28;20022;-75
2022/01/02 14:13:13;;;;;;;13.25;6.05;;;;;;;;;;6241306;28;20655;-74
2022/01/02 14:16:21;;;;;;;15.88;7.28;;;;;;;;;;6220884;28;20068;-75
2022/01/02 14:19:21;;;;;;;10.13;4.85;;;;;;;;;;6219831;28;20072;-74
2022/01/02 14:22:26;;;;;;;16.30;6.13;;;;;;;;;;6241262;28;20517;-75
2022/01/02 14:25:26;;;;;;;13.25;6.07;;;;;;;;;;6241517;28;20256;-74
2022/01/02 14:28:27;;;;;;;17.43;5.23;;;;;;;;;;6218277;28;20076;-74
2022/01/02 14:31:30;;;;;;;10.27;4.85;;;;;;;;;;6218839;28;20291;-74
2022/01/02 14:34:30;;;;;;;12.98;5.75;;;;;;;;;;6240336;28;20088;-74
2022/01/02 14:37:31;;;;;;;15.70;6.60;;;;;;;;;;6236608;28;20028;-76
2022/01/02 14:40:31;;;;;;;13.20;6.82;;;;;;;;;;6216864;28;20613;-75
2022/01/02 14:43:31;;;;;;;7.55;4.20;;;;;;;;;;6218863;28;20022;-75
2022/01/02 14:46:31;;;;;;;16.50;7.03;;;;;;;;;;6217170;28;20022;-75
2022/01/02 14:49:32;;;;;;;16.27;6.97;;;;;;;;;;6216697;28;20612;-75
2022/01/02 14:52:34;;;;;;;14.00;6.32;;;;;;;;;;6223165;28;20021;-75
2022/01/02 14:55:34;;;;;;;;;;;;;;;;;;6227898;28;20486;-75
2022/01/02 14:58:38;;;;;;;28.38;11.50;;;;;;;;;;6218393;28;20366;-75
2022/01/02 15:01:39;;;;;;;19.00;9.35;;;;;;;;;;6218441;28;20025;-75
2022/01/02 15:04:39;;;;;;;15.10;5.82;;;;;;;;;;6218409;28;20430;-75
2022/01/02 15:07:39;;;;;;;13.07;6.15;;;;;;;;;;6218763;28;20093;-75
2022/01/02 15:10:40;;;;;;;17.25;8.55;;;;;;;;;;6216966;28;20293;-75
2022/01/02 15:13:40;;;;;;;19.08;6.15;;;;;;;;;;6226343;28;20112;-75
2022/01/02 15:16:42;;;;;;;11.68;5.50;;;;;;;;;;6219301;28;20390;-75
2022/01/02 15:19:42;;;;;;;23.88;10.73;;;;;;;;;;6220413;28;20029;-75
2022/01/02 15:22:42;;;;;;;12.52;5.65;;;;;;;;;;6224922;28;20026;-75
2022/01/02 15:25:43;;;;;;;23.98;9.88;;;;;;;;;;6223227;28;20021;-75
2022/01/02 15:28:44;;;;;;;21.40;7.75;;;;;;;;;;6221934;28;20060;-75
2022/01/02 15:31:44;;;;;;;37.03;16.20;;;;;;;;;;6226761;28;20029;-75
2022/01/02 15:34:45;;;;;;;19.67;10.68;;;;;;;;;;6236751;28;20790;-75
2022/01/02 15:37:49;;;;;;;12.77;7.97;;;;;;;;;;6233266;28;20036;-75
2022/01/02 15:40:49;;;;;;;19.00;8.68;;;;;;;;;;6226768;28;20049;-75
2022/01/02 15:43:49;;;;;;;25.80;10.00;;;;;;;;;;6231049;28;20463;-75
2022/01/02 15:46:53;;;;;;;30.88;11.20;;;;;;;;;;6236179;28;20045;-75
2022/01/02 15:49:53;;;;;;;18.77;10.30;;;;;;;;;;6230979;28;20092;-75
2022/01/02 15:52:54;;;;;;;21.27;10.07;;;;;;;;;;6270072;28;20502;-75
2022/01/02 15:55:54;;;;;;;31.92;16.13;;;;;;;;;;6239948;28;20132;-75
2022/01/02 15:58:54;;;;;;;49.45;19.70;;;;;;;;;;6236295;28;20096;-75
2022/01/02 16:01:55;;;;;;;31.77;15.10;;;;;;;;;;6232813;28;20013;-75
2022/01/02 16:04:55;;;;;;;31.58;15.32;;;;;;;;;;6233182;28;20029;-75
2022/01/02 16:07:55;;;;;;;27.20;11.57;;;;;;;;;;6238488;28;20010;-75
2022/01/02 16:10:56;;;;;;;27.52;13.00;;;;;;;;;;6239382;28;20497;-75
2022/01/02 16:13:56;;;;;;;22.02;9.13;;;;;;;;;;6225123;28;20029;-75
2022/01/02 16:16:56;;;;;;;18.83;8.70;;;;;;;;;;6224236;28;20029;-75
2022/01/02 16:19:56;;;;;;;23.52;11.90;;;;;;;;;;6224644;28;20029;-75
2022/01/02 16:22:57;;;;;;;16.73;7.82;;;;;;;;;;6222011;28;20498;-75
2022/01/02 16:25:57;;;;;;;16.58;8.07;;;;;;;;;;6220437;28;20025;-75
2022/01/02 16:28:58;;;;;;;20.38;9.38;;;;;;;;;;6230148;28;20296;-75
2022/01/02 16:31:59;;;;;;;21.65;10.68;;;;;;;;;;6226932;28;20415;-75
2022/01/02 16:35:00;;;;;;;25.23;13.43;;;;;;;;;;6221662;28;20029;-75
2022/01/02 16:38:00;;;;;;;16.90;8.32;;;;;;;;;;6222633;28;20072;-75
2022/01/02 16:41:00;;;;;;;15.07;8.25;;;;;;;;;;6217968;28;20050;-75
2022/01/02 16:44:02;;;;;;;18.50;7.15;;;;;;;;;;6228894;28;20168;-75
2022/01/02 16:47:02;;;;;;;20.85;8.88;;;;;;;;;;6229624;28;20097;-75
2022/01/02 16:50:04;;;;;;;20.75;9.40;;;;;;;;;;6235046;28;20543;-75
2022/01/02 16:53:04;;;;;;;15.07;8.18;;;;;;;;;;6228478;28;20041;-75
2022/01/02 16:56:05;;;;;;;19.38;8.43;;;;;;;;;;6239509;28;20021;-75
2022/01/02 16:59:05;;;;;;;12.85;7.15;;;;;;;;;;6240625;28;20563;-75
2022/01/02 17:02:06;;;;;;;30.48;11.93;;;;;;;;;;6220374;28;20483;-75
2022/01/02 17:05:07;;;;;;;20.77;9.05;;;;;;;;;;6220990;28;20029;-75
2022/01/02 17:08:08;;;;;;;14.68;7.57;;;;;;;;;;6232514;28;20029;-75
2022/01/02 17:11:09;;;;;;;20.25;8.45;;;;;;;;;;6230746;28;20075;-75
2022/01/02 17:14:10;;;;;;;18.60;8.63;;;;;;;;;;6228524;28;20105;-75
2022/01/02 17:17:10;;;;;;;20.27;9.07;;;;;;;;;;6234455;28;20040;-75
2022/01/02 17:23:20;;;;;;;106.75;54.63;;;;;;;;;;6206500;28;19925;-89
2022/01/02 17:26:22;;;;;;;21.58;10.23;;;;;;;;;;6214018;28;20029;-89
2022/01/02 17:29:23;;;;;;;31.60;13.90;;;;;;;;;;6222890;28;20029;-89
2022/01/02 17:32:24;;;;;;;26.67;12.95;;;;;;;;;;6237320;28;20040;-90
2022/01/02 17:38:34;;;;;;;18.02;9.02;;;;;;;;;;6280660;22;20056;-89
2022/01/02 17:41:34;;;;;;;19.92;7.20;;;;;;;;;;6251216;28;20242;-89
2022/01/02 17:44:35;;;;;;;13.90;7.43;;;;;;;;;;6263140;28;20455;-89
2022/01/02 17:47:35;;;;;;;16.95;8.95;;;;;;;;;;6246128;28;20105;-89
2022/01/02 17:50:36;;;;;;;21.05;8.27;;;;;;;;;;6247559;28;20035;-89
2022/01/02 17:53:36;;;;;;;12.88;6.60;;;;;;;;;;6252680;28;20029;-89
2022/01/02 17:56:36;;;;;;;16.23;7.13;;;;;;;;;;6252945;28;20052;-89
2022/01/02 17:59:38;;;;;;;15.43;7.30;;;;;;;;;;6262111;28;20036;-88
2022/01/02 18:02:39;;;;;;;15.35;7.20;;;;;;;;;;6261811;28;20677;-89
2022/01/02 18:05:42;;;;;;;22.45;7.82;;;;;;;;;;6254390;28;20108;-89
2022/01/02 18:08:42;;;;;;;18.70;8.02;;;;;;;;;;6270131;28;20020;-89
2022/01/02 18:11:42;;;;;;;16.98;7.35;;;;;;;;;;6265848;28;20090;-89
2022/01/02 18:14:42;;;;;;;17.88;6.85;;;;;;;;;;6264937;28;20009;-90
2022/01/02 18:17:49;;;;;;;17.55;8.20;;;;;;;;;;6259308;28;20408;-89
2022/01/02 18:20:50;;;;;;;9.45;4.65;;;;;;;;;;6245661;28;20031;-89
2022/01/02 18:23:54;;;;;;;17.30;6.55;;;;;;;;;;6257112;28;20029;-88
2022/01/02 18:26:54;;;;;;;18.48;7.60;;;;;;;;;;6251192;28;20032;-89
2022/01/02 18:29:55;;;;;;;24.77;8.75;;;;;;;;;;6247532;28;20036;-89
2022/01/02 18:32:55;;;;;;;11.98;5.60;;;;;;;;;;6249201;28;20104;-88
2022/01/02 18:35:55;;;;;;;12.82;6.32;;;;;;;;;;6257299;28;20125;-88
2022/01/02 18:38:56;;;;;;;16.42;7.68;;;;;;;;;;6261208;28;20465;-89
2022/01/02 18:41:56;;;;;;;15.90;7.43;;;;;;;;;;6266879;28;20395;-89
2022/01/02 18:44:56;;;;;;;17.35;8.25;;;;;;;;;;6248088;28;20171;-89
2022/01/02 18:47:57;;;;;;;17.58;7.85;;;;;;;;;;6245048;28;20021;-89
2022/01/02 18:50:57;;;;;;;14.93;6.65;;;;;;;;;;6258147;28;20084;-88
2022/01/02 18:53:58;;;;;;;18.17;8.85;;;;;;;;;;6270499;28;20365;-89
2022/01/02 18:56:58;;;;;;;16.00;7.78;;;;;;;;;;6271310;28;20288;-88
2022/01/02 18:59:58;;;;;;;16.63;8.18;;;;;;;;;;6268828;28;20120;-88
2022/01/02 19:02:59;;;;;;;22.67;9.88;;;;;;;;;;6274404;28;20017;-89
2022/01/02 19:06:00;;;;;;;26.67;12.15;;;;;;;;;;6275482;28;20021;-89
2022/01/02 19:09:00;;;;;;;25.13;11.83;;;;;;;;;;6273594;28;20025;-89
2022/01/02 19:12:02;;;;;;;18.95;9.18;;;;;;;;;;6274658;28;20036;-89
2022/01/02 19:15:03;;;;;;;20.83;9.55;;;;;;;;;;6274052;28;20584;-89
2022/01/02 19:18:04;;;;;;;18.83;7.40;;;;;;;;;;6258480;28;20014;-89
2022/01/02 19:21:04;;;;;;;16.00;9.13;;;;;;;;;;6250097;28;20032;-89
2022/01/02 19:24:05;;;;;;;20.45;9.93;;;;;;;;;;6248865;28;20435;-88
2022/01/02 19:27:05;;;;;;;18.30;9.82;;;;;;;;;;6272335;28;20036;-88
2022/01/02 19:30:06;;;;;;;16.15;7.97;;;;;;;;;;6273132;28;20021;-88
2022/01/02 19:33:07;;;;;;;16.20;6.72;;;;;;;;;;6262966;28;20032;-89
2022/01/02 19:36:08;;;;;;;26.42;12.82;;;;;;;;;;6252040;28;20028;-88
2022/01/02 19:39:09;;;;;;;27.65;12.30;;;;;;;;;;6255604;28;20045;-88
2022/01/02 19:42:10;;;;;;;16.10;8.15;;;;;;;;;;6266886;28;20022;-88
2022/01/02 19:45:12;;;;;;;20.80;8.23;;;;;;;;;;6255521;28;20028;-89
2022/01/02 19:48:14;;;;;;;17.38;7.90;;;;;;;;;;6256610;28;20384;-88
2022/01/02 19:51:15;;;;;;;11.50;6.13;;;;;;;;;;6250578;28;20029;-87
2022/01/02 19:54:19;;;;;;;16.58;7.75;;;;;;;;;;6262164;28;20036;-87
2022/01/02 19:57:19;;;;;;;31.27;11.32;;;;;;;;;;6262790;28;20392;-88
2022/01/02 20:00:21;;;;;;;15.05;8.07;;;;;;;;;;6250559;28;20029;-88
2022/01/02 20:03:21;;;;;;;14.82;8.27;;;;;;;;;;6262908;28;20021;-88
2022/01/02 20:06:21;;;;;;;15.93;6.47;;;;;;;;;;6247888;28;20028;-88
2022/01/02 20:09:26;;;;;;;14.02;6.43;;;;;;;;;;6263260;28;20598;-88
2022/01/02 20:12:29;;;;;;;18.85;8.02;;;;;;;;;;6262844;28;20417;-88
2022/01/02 20:15:29;;;;;;;19.73;7.43;;;;;;;;;;6265640;28;20476;-89
2022/01/02 20:18:30;;;;;;;18.80;7.97;;;;;;;;;;6267025;28;20055;-88
2022/01/02 20:21:30;;;;;;;13.55;7.47;;;;;;;;;;6271410;28;20037;-88
2022/01/02 20:24:33;;;;;;;12.65;5.68;;;;;;;;;;6251348;28;20021;-88
2022/01/02 20:27:34;;;;;;;13.18;6.72;;;;;;;;;;6272312;28;20047;-88
2022/01/02 20:30:35;;;;;;;19.60;8.68;;;;;;;;;;6272718;28;20033;-89
2022/01/02 20:33:35;;;;;;;15.68;7.57;;;;;;;;;;6260876;28;20033;-88
2022/01/02 20:36:36;;;;;;;13.00;5.88;;;;;;;;;;6248073;28;20026;-88
2022/01/02 20:39:36;;;;;;;16.48;6.55;;;;;;;;;;6261066;28;20044;-88
2022/01/02 20:42:37;;;;;;;12.27;6.47;;;;;;;;;;6254072;28;20024;-89
2022/01/02 20:45:37;;;;;;;13.23;5.15;;;;;;;;;;6250071;28;20100;-89
2022/01/02 20:48:38;;;;;;;14.93;6.55;;;;;;;;;;6246046;28;20017;-89
2022/01/02 20:51:38;;;;;;;8.15;4.97;;;;;;;;;;6250896;28;20060;-88
2022/01/02 20:54:39;;;;;;;18.33;7.85;;;;;;;;;;6250490;28;20029;-89
2022/01/02 20:57:39;;;;;;;28.27;11.82;;;;;;;;;;6253716;28;20048;-89
2022/01/02 21:00:40;;;;;;;33.85;11.82;;;;;;;;;;6249829;28;20026;-89
2022/01/02 21:03:42;;;;;;;13.45;6.60;;;;;;;;;;6260999;28;20013;-88
2022/01/02 21:06:42;;;;;;;12.50;5.90;;;;;;;;;;6249652;28;20248;-88
2022/01/02 21:09:45;;;;;;;23.25;9.38;;;;;;;;;;6251746;28;20067;-88
2022/01/02 21:12:46;;;;;;;15.80;7.82;;;;;;;;;;6254106;28;20018;-88
2022/01/02 21:15:47;;;;;;;18.05;8.02;;;;;;;;;;6251456;28;20025;-88
2022/01/02 21:18:47;;;;;;;20.73;7.30;;;;;;;;;;6250356;28;20036;-88
2022/01/02 21:21:47;;;;;;;13.93;8.50;;;;;;;;;;6248210;28;20018;-88
2022/01/02 21:24:48;;;;;;;8.55;4.72;;;;;;;;;;6252635;28;20009;-88
2022/01/02 21:27:48;;;;;;;12.32;5.30;;;;;;;;;;6275296;28;20021;-89
2022/01/02 21:30:49;;;;;;;11.55;6.53;;;;;;;;;;6275334;28;20025;-89
2022/01/02 21:33:49;;;;;;;37.35;10.98;;;;;;;;;;6272428;28;20059;-88
2022/01/02 21:36:50;;;;;;;15.82;6.95;;;;;;;;;;6270415;28;20487;-88
2022/01/02 21:39:50;;;;;;;16.50;7.50;;;;;;;;;;6257816;28;20009;-88
2022/01/02 21:42:51;;;;;;;14.82;6.93;;;;;;;;;;6247604;28;20013;-88
2022/01/02 21:45:55;;;;;;;12.95;5.72;;;;;;;;;;6270194;28;20016;-88
2022/01/02 21:48:56;;;;;;;15.55;6.80;;;;;;;;;;6255315;28;20021;-88
2022/01/02 21:51:56;;;;;;;16.10;7.78;;;;;;;;;;6270202;28;20024;-89
2022/01/02 21:54:56;;;;;;;22.48;9.40;;;;;;;;;;6266657;28;20028;-88
2022/01/02 21:57:57;;;;;;;15.25;5.63;;;;;;;;;;6248147;28;20388;-89
2022/01/02 22:00:58;;;;;;;6.88;4.25;;;;;;;;;;6252964;28;20029;-88
2022/01/02 22:03:59;;;;;;;12.63;5.13;;;;;;;;;;6255179;28;20538;-89
2022/01/02 22:06:59;;;;;;;15.35;7.28;;;;;;;;;;6257596;28;20400;-89
2022/01/02 22:10:00;;;;;;;17.15;7.30;;;;;;;;;;6249747;28;20033;-88
2022/01/02 22:13:00;;;;;;;9.48;5.38;;;;;;;;;;6269424;28;20416;-88
2022/01/02 22:16:00;;;;;;;11.32;5.32;;;;;;;;;;6269263;28;20104;-88
2022/01/02 22:19:01;;;;;;;11.20;5.28;;;;;;;;;;6269116;28;20077;-88
2022/01/02 22:22:02;;;;;;;12.43;6.43;;;;;;;;;;6270543;28;20021;-88
2022/01/02 22:25:04;;;;;;;18.55;8.10;;;;;;;;;;6263483;28;20044;-88
2022/01/02 22:28:04;;;;;;;19.00;7.20;;;;;;;;;;6267081;28;20071;-88
2022/01/02 22:31:06;;;;;;;15.75;6.82;;;;;;;;;;6268872;28;20021;-88
2022/01/02 22:34:07;;;;;;;28.73;11.57;;;;;;;;;;6268455;28;20020;-89
2022/01/02 22:37:07;;;;;;;15.77;7.72;;;;;;;;;;6267293;28;20118;-89
2022/01/02 22:40:08;;;;;;;11.52;6.13;;;;;;;;;;6259470;28;20021;-88
2022/01/02 22:43:09;;;;;;;11.50;6.20;;;;;;;;;;6258459;28;20020;-89
2022/01/02 22:46:10;;;;;;;13.50;6.53;;;;;;;;;;6266395;28;20036;-89
2022/01/02 22:49:11;;;;;;;17.90;6.38;;;;;;;;;;6268306;28;20113;-89
2022/01/02 22:52:12;;;;;;;19.95;8.25;;;;;;;;;;6253410;28;20530;-89
2022/01/02 22:55:16;;;;;;;14.50;7.83;;;;;;;;;;6245029;28;20390;-89
2022/01/02 22:58:16;;;;;;;17.42;7.68;;;;;;;;;;6269867;28;20090;-89
2022/01/02 23:01:18;;;;;;;12.68;5.70;;;;;;;;;;6259536;28;20021;-89
2022/01/02 23:04:18;;;;;;;;;;;;;;;;;;6243582;28;20053;-88
2022/01/02 23:07:20;;;;;;;15.23;5.93;;;;;;;;;;6244407;28;19916;-89
2022/01/02 23:10:20;;;;;;;16.97;7.03;;;;;;;;;;6245289;28;20028;-89
2022/01/02 23:13:20;;;;;;;12.80;6.10;;;;;;;;;;6260140;28;20017;-89
2022/01/02 23:16:23;;;;;;;14.18;7.45;;;;;;;;;;6260221;28;20104;-88
2022/01/02 23:19:23;;;;;;;13.55;5.55;;;;;;;;;;6269286;28;20021;-89
2022/01/02 23:22:26;;;;;;;11.88;5.45;;;;;;;;;;6267989;28;20059;-89
2022/01/02 23:25:26;;;;;;;;;;;;;;;;;;6268051;28;20024;-89
2022/01/02 23:28:26;;;;;;;15.65;6.57;;;;;;;;;;6268847;28;19909;-89
2022/01/02 23:31:27;;;;;;;20.88;8.57;;;;;;;;;;6268886;28;20096;-89
2022/01/02 23:34:27;;;;;;;10.13;5.72;;;;;;;;;;6268421;28;20170;-89
2022/01/02 23:37:27;;;;;;;13.63;6.95;;;;;;;;;;6267817;28;20048;-89
2022/01/02 23:40:30;;;;;;;17.77;6.85;;;;;;;;;;6268512;28;20666;-89
2022/01/02 23:43:31;;;;;;;14.13;7.15;;;;;;;;;;6254842;28;20014;-89
2022/01/02 23:46:34;;;;;;;15.65;6.32;;;;;;;;;;6247582;28;20017;-89
2022/01/02 23:49:38;;;;;;;20.70;8.43;;;;;;;;;;6249998;28;20073;-89
2022/01/02 23:52:51;;;;;;;14.88;6.65;;;;;;;;;;6263296;28;20033;-89
2022/01/02 23:55:53;;;;;;;12.35;5.55;;;;;;;;;;6263636;28;20021;-89
2022/01/02 23:58:55;;;;;;;18.20;8.20;;;;;;;;;;6264934;28;20025;-89
